DLH7XA LIEE-EDDM
Flight info
| Callsign | DLH7XA |
|---|---|
| Flight time | N/A |
| Altitude | 38000 |
| Route | KOVAS DCT DEXUL DCT LABOM DCT UREXE DCT ROMPO DCT OLBEK DCT IBROS DCT TAGIP DCT GUNGO DCT TISAX T102 NINUR T101 BETOS BETOS1A |
| Aircraft | A321/M-SDE2E3FGIJ1LORWXYZ/HB1 |
Departure
| Time | 2026-04-27 19:05 |
|---|---|
| Airport | Cagliari Elmas Airport (LIEE) |
Arrival
| Time | N/A |
|---|---|
| Airport | Munich Airport (EDDM) |
| Time | Latitude | Longitude | Altitude | Speed | Heading |
|---|---|---|---|---|---|
| 2026-04-27 18:10 | 39.25288 | 9.06018 | 22 ft | 0 kts | 322° |
| 2026-04-27 18:54 | 39.25285 | 9.06020 | 23 ft | 2 kts | 322° |
| 2026-04-27 18:55 | 39.25276 | 9.06030 | 23 ft | 2 kts | 319° |
| 2026-04-27 18:55 | 39.25265 | 9.06041 | 23 ft | 2 kts | 321° |
| 2026-04-27 18:55 | 39.25256 | 9.06051 | 23 ft | 2 kts | 323° |
| 2026-04-27 18:55 | 39.25243 | 9.06060 | 23 ft | 2 kts | 342° |
| 2026-04-27 18:56 | 39.25230 | 9.06065 | 23 ft | 2 kts | 339° |
| 2026-04-27 18:56 | 39.25217 | 9.06074 | 22 ft | 2 kts | 326° |
| 2026-04-27 18:56 | 39.25207 | 9.06082 | 23 ft | 0 kts | 319° |
| 2026-04-27 18:59 | 39.25208 | 9.06082 | 22 ft | 0 kts | 319° |
| 2026-04-27 18:59 | 39.25212 | 9.06042 | 22 ft | 7 kts | 245° |
| 2026-04-27 18:59 | 39.25179 | 9.05984 | 22 ft | 8 kts | 231° |
| 2026-04-27 18:59 | 39.25145 | 9.05917 | 22 ft | 9 kts | 262° |
| 2026-04-27 19:00 | 39.25157 | 9.05849 | 22 ft | 7 kts | 254° |
| 2026-04-27 19:00 | 39.25126 | 9.05781 | 22 ft | 9 kts | 238° |
| 2026-04-27 19:00 | 39.25143 | 9.05708 | 22 ft | 11 kts | 314° |
| 2026-04-27 19:00 | 39.25232 | 9.05605 | 22 ft | 19 kts | 318° |
| 2026-04-27 19:01 | 39.25330 | 9.05489 | 22 ft | 19 kts | 317° |
| 2026-04-27 19:01 | 39.25432 | 9.05372 | 22 ft | 19 kts | 318° |
| 2026-04-27 19:01 | 39.25534 | 9.05258 | 22 ft | 19 kts | 316° |
| 2026-04-27 19:01 | 39.25634 | 9.05139 | 23 ft | 19 kts | 319° |
| 2026-04-27 19:02 | 39.25731 | 9.05028 | 23 ft | 17 kts | 318° |
| 2026-04-27 19:02 | 39.25822 | 9.04921 | 23 ft | 17 kts | 318° |
| 2026-04-27 19:02 | 39.25915 | 9.04812 | 23 ft | 18 kts | 317° |
| 2026-04-27 19:02 | 39.26009 | 9.04702 | 23 ft | 15 kts | 318° |
| 2026-04-27 19:03 | 39.26091 | 9.04608 | 23 ft | 15 kts | 318° |
| 2026-04-27 19:03 | 39.26131 | 9.04501 | 23 ft | 13 kts | 274° |
| 2026-04-27 19:03 | 39.26104 | 9.04391 | 23 ft | 13 kts | 225° |
| 2026-04-27 19:03 | 39.26070 | 9.04365 | 23 ft | 7 kts | 169° |
| 2026-04-27 19:04 | 39.26058 | 9.04376 | 23 ft | 1 kts | 139° |
| 2026-04-27 19:04 | 39.26051 | 9.04384 | 23 ft | 5 kts | 139° |
| 2026-04-27 19:04 | 39.25826 | 9.04643 | 23 ft | 81 kts | 138° |
| 2026-04-27 19:04 | 39.25223 | 9.05343 | 23 ft | 147 kts | 137° |
| 2026-04-27 19:05 | 39.24445 | 9.06266 | 546 ft | 155 kts | 138° |
| 2026-04-27 19:05 | 39.23651 | 9.07185 | 1253 ft | 154 kts | 137° |
| 2026-04-27 19:05 | 39.22856 | 9.08081 | 1893 ft | 153 kts | 137° |
| 2026-04-27 19:05 | 39.22022 | 9.08978 | 2317 ft | 164 kts | 139° |
| 2026-04-27 19:06 | 39.21089 | 9.09953 | 2688 ft | 181 kts | 139° |
| 2026-04-27 19:06 | 39.20063 | 9.11030 | 3093 ft | 198 kts | 136° |
| 2026-04-27 19:06 | 39.19284 | 9.12520 | 3459 ft | 213 kts | 105° |
| 2026-04-27 19:06 | 39.19302 | 9.14492 | 3849 ft | 231 kts | 70° |
| 2026-04-27 19:07 | 39.20212 | 9.16149 | 4600 ft | 235 kts | 38° |
| 2026-04-27 19:07 | 39.21720 | 9.17060 | 5226 ft | 245 kts | 15° |
| 2026-04-27 19:07 | 39.23431 | 9.17635 | 5736 ft | 261 kts | 13° |
| 2026-04-27 19:07 | 39.25264 | 9.18219 | 6252 ft | 277 kts | 13° |
| 2026-04-27 19:08 | 39.27140 | 9.18817 | 6991 ft | 283 kts | 13° |
| 2026-04-27 19:08 | 39.29077 | 9.19440 | 7810 ft | 285 kts | 13° |
| 2026-04-27 19:08 | 39.30997 | 9.20063 | 8584 ft | 289 kts | 13° |
| 2026-04-27 19:08 | 39.32970 | 9.20706 | 9357 ft | 292 kts | 12° |
| 2026-04-27 19:09 | 39.34956 | 9.21355 | 10104 ft | 295 kts | 12° |
| 2026-04-27 19:09 | 39.36993 | 9.22022 | 10714 ft | 304 kts | 12° |
| 2026-04-27 19:09 | 39.39110 | 9.22714 | 11064 ft | 321 kts | 12° |
| 2026-04-27 19:09 | 39.41341 | 9.23444 | 11381 ft | 338 kts | 12° |
| 2026-04-27 19:10 | 39.43669 | 9.24209 | 11876 ft | 348 kts | 13° |
| 2026-04-27 19:10 | 39.46027 | 9.24985 | 12588 ft | 351 kts | 13° |
| 2026-04-27 19:10 | 39.48423 | 9.25776 | 13284 ft | 354 kts | 12° |
| 2026-04-27 19:10 | 39.50021 | 9.26305 | 13739 ft | 356 kts | 12° |
| 2026-04-27 19:11 | 39.53245 | 9.27368 | 14616 ft | 361 kts | 13° |
| 2026-04-27 19:11 | 39.55678 | 9.28170 | 15243 ft | 364 kts | 13° |
| 2026-04-27 19:11 | 39.58185 | 9.28999 | 15865 ft | 367 kts | 13° |
| 2026-04-27 19:11 | 39.60672 | 9.29822 | 16483 ft | 370 kts | 13° |
| 2026-04-27 19:12 | 39.63220 | 9.30667 | 17084 ft | 374 kts | 13° |
| 2026-04-27 19:12 | 39.65760 | 9.31508 | 17668 ft | 377 kts | 13° |
| 2026-04-27 19:12 | 39.68322 | 9.32359 | 18237 ft | 380 kts | 13° |
| 2026-04-27 19:12 | 39.70908 | 9.33217 | 18796 ft | 383 kts | 13° |
| 2026-04-27 19:13 | 39.73499 | 9.34079 | 19345 ft | 387 kts | 13° |
| 2026-04-27 19:13 | 39.76143 | 9.34957 | 19893 ft | 389 kts | 13° |
| 2026-04-27 19:13 | 39.78773 | 9.35832 | 20421 ft | 392 kts | 13° |
| 2026-04-27 19:13 | 39.81438 | 9.36720 | 20941 ft | 395 kts | 13° |
| 2026-04-27 19:14 | 39.84104 | 9.37608 | 21444 ft | 398 kts | 13° |
| 2026-04-27 19:14 | 39.86785 | 9.38502 | 21931 ft | 401 kts | 13° |
| 2026-04-27 19:14 | 39.89517 | 9.39414 | 22420 ft | 404 kts | 14° |
| 2026-04-27 19:14 | 39.92263 | 9.40332 | 22892 ft | 406 kts | 14° |
| 2026-04-27 19:15 | 39.94986 | 9.41243 | 23355 ft | 409 kts | 14° |
| 2026-04-27 19:15 | 39.97769 | 9.42175 | 23847 ft | 410 kts | 13° |
| 2026-04-27 19:15 | 40.00569 | 9.43114 | 24277 ft | 414 kts | 13° |
| 2026-04-27 19:15 | 40.03360 | 9.44050 | 24682 ft | 417 kts | 13° |
| 2026-04-27 19:16 | 40.06197 | 9.45003 | 25095 ft | 419 kts | 13° |
| 2026-04-27 19:16 | 40.08070 | 9.45630 | 25363 ft | 421 kts | 13° |
| 2026-04-27 19:16 | 40.11911 | 9.46921 | 25900 ft | 424 kts | 13° |
| 2026-04-27 19:16 | 40.14784 | 9.47882 | 26291 ft | 427 kts | 13° |
| 2026-04-27 19:17 | 40.17655 | 9.48845 | 26676 ft | 429 kts | 13° |
| 2026-04-27 19:17 | 40.20571 | 9.49825 | 27057 ft | 431 kts | 13° |
| 2026-04-27 19:17 | 40.23496 | 9.50810 | 27421 ft | 433 kts | 13° |
| 2026-04-27 19:17 | 40.26421 | 9.51796 | 27779 ft | 436 kts | 13° |
| 2026-04-27 19:18 | 40.29408 | 9.52804 | 28130 ft | 438 kts | 13° |
| 2026-04-27 19:18 | 40.32397 | 9.53815 | 28481 ft | 440 kts | 13° |
| 2026-04-27 19:18 | 40.35386 | 9.54825 | 28819 ft | 442 kts | 13° |
| 2026-04-27 19:18 | 40.38379 | 9.55839 | 29152 ft | 444 kts | 13° |
| 2026-04-27 19:19 | 40.41381 | 9.56856 | 29471 ft | 446 kts | 13° |
| 2026-04-27 19:19 | 40.44436 | 9.57893 | 29793 ft | 448 kts | 13° |
| 2026-04-27 19:19 | 40.47464 | 9.58921 | 30095 ft | 449 kts | 13° |
| 2026-04-27 19:19 | 40.50498 | 9.59953 | 30402 ft | 451 kts | 13° |
| 2026-04-27 19:20 | 40.53537 | 9.60987 | 30786 ft | 450 kts | 13° |
| 2026-04-27 19:20 | 40.56595 | 9.62030 | 31188 ft | 448 kts | 13° |
| 2026-04-27 19:20 | 40.59594 | 9.63053 | 31560 ft | 447 kts | 13° |
| 2026-04-27 19:20 | 40.62630 | 9.64089 | 31924 ft | 446 kts | 13° |
| 2026-04-27 19:21 | 40.65634 | 9.65114 | 32266 ft | 446 kts | 13° |
| 2026-04-27 19:21 | 40.68661 | 9.66161 | 32591 ft | 445 kts | 13° |
| 2026-04-27 19:21 | 40.71641 | 9.67197 | 32903 ft | 445 kts | 13° |
| 2026-04-27 19:21 | 40.74653 | 9.68241 | 33216 ft | 444 kts | 13° |
| 2026-04-27 19:22 | 40.77676 | 9.69285 | 33537 ft | 444 kts | 13° |
| 2026-04-27 19:22 | 40.80627 | 9.70303 | 33845 ft | 443 kts | 13° |
| 2026-04-27 19:22 | 40.83655 | 9.71345 | 34140 ft | 443 kts | 13° |
| 2026-04-27 19:22 | 40.86636 | 9.72371 | 34423 ft | 443 kts | 13° |
| 2026-04-27 19:23 | 40.89617 | 9.73399 | 34655 ft | 442 kts | 13° |
| 2026-04-27 19:23 | 40.92572 | 9.74417 | 34907 ft | 442 kts | 13° |
| 2026-04-27 19:23 | 40.95569 | 9.75452 | 35154 ft | 441 kts | 13° |
| 2026-04-27 19:23 | 40.98540 | 9.76477 | 35413 ft | 439 kts | 13° |
| 2026-04-27 19:24 | 41.01512 | 9.77504 | 35649 ft | 438 kts | 13° |
| 2026-04-27 19:24 | 41.04438 | 9.78516 | 35889 ft | 437 kts | 13° |
| 2026-04-27 19:24 | 41.07393 | 9.79539 | 36118 ft | 435 kts | 13° |
| 2026-04-27 19:24 | 41.10303 | 9.80547 | 36339 ft | 434 kts | 13° |
| 2026-04-27 19:25 | 41.13256 | 9.81566 | 36588 ft | 434 kts | 13° |
| 2026-04-27 19:25 | 41.16190 | 9.82581 | 36839 ft | 434 kts | 13° |
| 2026-04-27 19:25 | 41.19122 | 9.83596 | 37013 ft | 435 kts | 13° |
| 2026-04-27 19:25 | 41.22055 | 9.84613 | 37205 ft | 435 kts | 13° |
| 2026-04-27 19:26 | 41.24973 | 9.85627 | 37379 ft | 436 kts | 13° |
| 2026-04-27 19:26 | 41.27898 | 9.86646 | 37542 ft | 436 kts | 13° |
| 2026-04-27 19:26 | 41.30829 | 9.87668 | 37701 ft | 436 kts | 13° |
| 2026-04-27 19:26 | 41.33784 | 9.88698 | 37838 ft | 437 kts | 13° |
| 2026-04-27 19:27 | 41.36752 | 9.89735 | 37981 ft | 437 kts | 13° |
| 2026-04-27 19:27 | 41.42655 | 9.91800 | 38079 ft | 438 kts | 13° |
| 2026-04-27 19:28 | 41.48555 | 9.93868 | 38093 ft | 438 kts | 13° |
| 2026-04-27 19:28 | 41.54450 | 9.95938 | 38095 ft | 438 kts | 13° |
| 2026-04-27 19:29 | 41.60395 | 9.98030 | 38100 ft | 438 kts | 13° |
| 2026-04-27 19:29 | 41.66264 | 10.00098 | 38096 ft | 438 kts | 13° |
| 2026-04-27 19:30 | 41.72200 | 10.02196 | 38089 ft | 438 kts | 13° |
| 2026-04-27 19:30 | 41.78115 | 10.04192 | 38099 ft | 437 kts | 10° |
| 2026-04-27 19:31 | 41.84090 | 10.05452 | 38104 ft | 436 kts | 5° |
| 2026-04-27 19:31 | 41.90134 | 10.06334 | 38093 ft | 436 kts | 4° |
| 2026-04-27 19:32 | 41.96176 | 10.07201 | 38088 ft | 436 kts | 4° |
| 2026-04-27 19:32 | 42.02236 | 10.08078 | 38096 ft | 436 kts | 4° |
| 2026-04-27 19:33 | 42.08261 | 10.08955 | 38087 ft | 436 kts | 5° |
| 2026-04-27 19:33 | 42.14298 | 10.09835 | 38104 ft | 435 kts | 5° |
| 2026-04-27 19:34 | 42.20343 | 10.10717 | 38102 ft | 435 kts | 5° |
| 2026-04-27 19:34 | 42.26191 | 10.11575 | 38100 ft | 435 kts | 5° |
| 2026-04-27 19:35 | 42.32265 | 10.12467 | 38091 ft | 434 kts | 5° |
| 2026-04-27 19:35 | 42.38315 | 10.13358 | 38094 ft | 434 kts | 5° |
| 2026-04-27 19:36 | 42.44305 | 10.14242 | 38094 ft | 434 kts | 5° |
| 2026-04-27 19:36 | 42.50332 | 10.15133 | 38093 ft | 434 kts | 5° |
| 2026-04-27 19:37 | 42.56338 | 10.16022 | 38094 ft | 434 kts | 5° |
| 2026-04-27 19:37 | 42.62362 | 10.16916 | 38104 ft | 433 kts | 5° |
| 2026-04-27 19:38 | 42.68324 | 10.17802 | 38096 ft | 433 kts | 5° |
| 2026-04-27 19:38 | 42.74161 | 10.18672 | 38092 ft | 433 kts | 5° |
| 2026-04-27 19:39 | 42.80161 | 10.19568 | 38098 ft | 432 kts | 5° |
| 2026-04-27 19:39 | 42.86171 | 10.20467 | 38100 ft | 432 kts | 5° |
| 2026-04-27 19:40 | 42.92100 | 10.21356 | 38100 ft | 432 kts | 5° |
| 2026-04-27 19:40 | 42.98083 | 10.22255 | 38098 ft | 432 kts | 5° |
| 2026-04-27 19:41 | 43.04043 | 10.23151 | 38097 ft | 431 kts | 5° |
| 2026-04-27 19:41 | 43.10028 | 10.24054 | 38094 ft | 431 kts | 5° |
| 2026-04-27 19:42 | 43.15970 | 10.24949 | 38092 ft | 431 kts | 5° |
| 2026-04-27 19:42 | 43.21938 | 10.25850 | 38092 ft | 431 kts | 5° |
| 2026-04-27 19:43 | 43.27936 | 10.26759 | 38092 ft | 432 kts | 5° |
| 2026-04-27 19:43 | 43.33866 | 10.27660 | 38087 ft | 431 kts | 5° |
| 2026-04-27 19:44 | 43.39824 | 10.28567 | 38094 ft | 431 kts | 5° |
| 2026-04-27 19:44 | 43.45782 | 10.29477 | 38093 ft | 431 kts | 5° |